Time;durP1;ratioP1;P1;durP2;ratioP2;P2;SDS_P1;SDS_P2;PMS_P1;PMS_P2;Temp;Humidity;BMP_temperature;BMP_pressure;BME280_temperature;BME280_humidity;BME280_pressure;Samples;Min_cycle;Max_cycle;Signal;HPM_P1;HPM_P2
2022/04/10 00:01:11;;;;;;;7.22;2.88;;;;;;;7.83;72.53;93844.88;5068849;28;20044;-47
2022/04/10 00:03:37;;;;;;;5.50;2.65;;;;;;;7.83;71.98;93844.88;5069262;28;20101;-48
2022/04/10 00:06:04;;;;;;;7.72;2.90;;;;;;;7.83;71.73;93855.25;5065864;28;20718;-47
2022/04/10 00:08:31;;;;;;;4.75;2.05;;;;;;;7.78;71.35;93857.75;5068013;28;20040;-51
2022/04/10 00:10:58;;;;;;;6.85;3.10;;;;;;;7.74;71.10;93861.03;5069115;28;20055;-48
2022/04/10 00:13:25;;;;;;;4.95;2.67;;;;;;;7.72;72.09;93858.69;5067238;28;20121;-45
2022/04/10 00:15:52;;;;;;;4.78;2.38;;;;;;;7.74;71.89;93855.84;5065452;28;20403;-47
2022/04/10 00:18:19;;;;;;;5.35;2.55;;;;;;;7.73;72.13;93856.91;5068331;28;20060;-45
2022/04/10 00:20:45;;;;;;;8.82;2.47;;;;;;;7.69;72.11;93854.00;5067794;28;20741;-45
2022/04/10 00:23:12;;;;;;;5.95;3.22;;;;;;;7.60;72.34;93843.22;5067032;28;20051;-45
2022/04/10 00:25:39;;;;;;;4.47;2.72;;;;;;;7.55;73.70;93855.31;5071732;28;20066;-46
2022/04/10 00:28:07;;;;;;;9.43;3.00;;;;;;;7.26;74.85;93834.66;5068800;28;20048;-50
2022/04/10 00:30:34;;;;;;;5.20;3.00;;;;;;;7.34;74.71;93836.84;5070808;28;20127;-48
2022/04/10 00:33:02;;;;;;;9.15;3.10;;;;;;;7.26;75.36;93821.72;5072610;28;20066;-46
2022/04/10 00:35:29;;;;;;;7.05;3.45;;;;;;;7.36;75.37;93824.44;5073532;28;20037;-49
2022/04/10 00:37:55;;;;;;;7.18;3.05;;;;;;;7.33;75.92;93819.75;5070208;28;20086;-47
2022/04/10 00:40:22;;;;;;;6.00;3.08;;;;;;;7.26;75.74;93824.31;5067866;28;20435;-49
2022/04/10 00:42:49;;;;;;;10.43;2.60;;;;;;;7.27;75.94;93826.66;5070967;28;20049;-46
2022/04/10 00:45:17;;;;;;;5.50;2.90;;;;;;;7.34;75.87;93826.50;5068603;28;20109;-48
2022/04/10 00:47:45;;;;;;;4.18;2.13;;;;;;;7.40;76.09;93825.56;5072858;28;21470;-49
2022/04/10 00:50:14;;;;;;;7.00;3.05;;;;;;;7.43;76.27;93824.28;5073270;28;20076;-51
2022/04/10 00:52:43;;;;;;;4.78;2.53;;;;;;;7.41;76.88;93826.34;5068130;28;20043;-49
2022/04/10 00:55:10;;;;;;;11.82;3.40;;;;;;;7.49;75.89;93828.56;5067045;28;20450;-47
2022/04/10 00:57:38;;;;;;;6.88;3.22;;;;;;;7.39;76.43;93829.16;5068678;28;20072;-46
2022/04/10 01:00:08;;;;;;;8.35;3.45;;;;;;;7.44;76.08;93826.66;5066579;28;20037;-47
2022/04/10 01:02:35;;;;;;;5.30;2.90;;;;;;;7.44;76.78;93820.69;5066582;28;20048;-51
2022/04/10 01:05:04;;;;;;;5.90;2.92;;;;;;;7.26;76.73;93824.31;5070510;28;20122;-45
2022/04/10 01:07:31;;;;;;;5.45;3.33;;;;;;;7.28;77.10;93812.66;5066345;28;20156;-47
2022/04/10 01:09:57;;;;;;;9.38;2.78;;;;;;;7.34;77.62;93816.13;5065282;28;20083;-46
2022/04/10 01:12:24;;;;;;;7.70;3.05;;;;;;;7.20;78.16;93799.31;5066988;28;20055;-45
2022/04/10 01:14:56;;;;;;;6.82;2.85;;;;;;;7.25;77.83;93802.00;5066497;28;20048;-47
2022/04/10 01:17:32;;;;;;;5.45;2.95;;;;;;;7.26;77.54;93795.81;5069127;28;20490;-47
2022/04/10 01:19:59;;;;;;;5.57;3.33;;;;;;;7.19;78.48;93777.81;5068217;28;20044;-47
2022/04/10 01:22:32;;;;;;;9.38;3.20;;;;;;;7.30;78.00;93789.13;5063747;28;20052;-46
2022/04/10 01:25:04;;;;;;;5.45;3.20;;;;;;;7.37;77.33;93789.75;5062548;28;20037;-52
2022/04/10 01:27:38;;;;;;;11.45;3.75;;;;;;;7.28;77.34;93754.91;5068847;28;20109;-48
2022/04/10 01:30:07;;;;;;;11.20;3.97;;;;;;;7.24;78.49;93764.19;5065472;28;20125;-52
2022/04/10 01:32:34;;;;;;;6.75;3.17;;;;;;;6.91;80.85;93764.94;5073807;28;20566;-47
2022/04/10 01:35:03;;;;;;;12.10;3.55;;;;;;;6.96;79.91;93758.03;5074099;28;20056;-45
2022/04/10 01:37:31;;;;;;;7.07;3.40;;;;;;;7.02;79.81;93764.88;5071169;28;20050;-49
2022/04/10 01:39:59;;;;;;;6.50;3.35;;;;;;;6.97;80.11;93774.34;5068853;28;20113;-47
2022/04/10 01:42:26;;;;;;;5.18;2.58;;;;;;;6.91;79.85;93775.28;5075176;28;20052;-46
2022/04/10 01:44:53;;;;;;;11.45;4.13;;;;;;;6.95;79.70;93764.25;5073474;28;20051;-47
2022/04/10 01:47:20;;;;;;;10.43;4.10;;;;;;;6.99;78.60;93773.13;5073986;28;20040;-47
2022/04/10 01:49:47;;;;;;;7.32;3.47;;;;;;;6.92;78.55;93777.66;5069928;28;20048;-45
2022/04/10 01:52:14;;;;;;;6.82;3.13;;;;;;;6.86;79.54;93774.19;5066528;28;20044;-45
2022/04/10 01:54:42;;;;;;;11.68;4.00;;;;;;;6.82;79.86;93767.13;5068601;28;20417;-47
2022/04/10 01:57:10;;;;;;;5.15;3.40;;;;;;;6.72;80.15;93787.63;5072851;28;20076;-47
2022/04/10 01:59:38;;;;;;;13.25;4.18;;;;;;;6.42;80.33;93783.50;5074087;28;20068;-46
2022/04/10 02:02:05;;;;;;;8.35;3.00;;;;;;;6.37;80.06;93802.28;5073953;28;20117;-48
2022/04/10 02:04:33;;;;;;;8.57;3.45;;;;;;;6.03;81.87;93816.84;5073183;28;20052;-48
2022/04/10 02:06:59;;;;;;;6.60;3.78;;;;;;;6.03;81.17;93806.50;5070666;28;20532;-46
2022/04/10 02:09:27;;;;;;;12.70;4.45;;;;;;;5.90;82.06;93804.94;5071258;28;20429;-48
2022/04/10 02:11:54;;;;;;;8.27;3.97;;;;;;;5.88;82.59;93802.56;5065569;28;20052;-46
2022/04/10 02:14:21;;;;;;;11.00;4.05;;;;;;;5.88;83.10;93799.97;5071750;28;20513;-45
2022/04/10 02:16:48;;;;;;;10.80;4.32;;;;;;;5.77;83.75;93800.78;5074520;28;20102;-45
2022/04/10 02:19:15;;;;;;;9.23;3.95;;;;;;;5.67;84.99;93803.13;5071069;28;20097;-45
2022/04/10 02:21:42;;;;;;;18.67;3.60;;;;;;;5.65;85.89;93815.50;5072974;28;20032;-46
2022/04/10 02:24:09;;;;;;;7.05;3.72;;;;;;;5.63;85.61;93800.22;5065848;28;20045;-44
2022/04/10 02:26:36;;;;;;;8.95;3.50;;;;;;;5.65;85.86;93780.09;5076448;28;20051;-48
2022/04/10 02:29:03;;;;;;;6.05;3.70;;;;;;;5.65;86.70;93787.09;5073809;28;20044;-45
2022/04/10 02:31:29;;;;;;;9.18;4.40;;;;;;;5.68;87.39;93789.22;5071607;28;20044;-48
2022/04/10 02:33:56;;;;;;;8.57;4.00;;;;;;;5.76;87.66;93791.44;5068406;28;20047;-47
2022/04/10 02:36:23;;;;;;;9.20;4.30;;;;;;;5.81;88.15;93804.47;5066638;28;20514;-49
2022/04/10 02:38:50;;;;;;;10.50;4.32;;;;;;;5.88;87.77;93779.31;5073497;28;20147;-45
2022/04/10 02:41:21;;;;;;;8.95;4.22;;;;;;;5.97;88.16;93781.59;5069078;28;20081;-46
2022/04/10 02:43:50;;;;;;;7.65;4.05;;;;;;;6.07;88.35;93792.91;5072319;28;20056;-47
2022/04/10 02:46:17;;;;;;;6.97;4.85;;;;;;;6.06;88.93;93801.66;5071185;28;20047;-50
2022/04/10 02:48:44;;;;;;;8.43;4.38;;;;;;;6.20;89.20;93802.22;5067238;28;20540;-49
2022/04/10 02:51:15;;;;;;;7.72;4.18;;;;;;;6.34;88.11;93809.69;5065121;28;20766;-45
2022/04/10 02:53:42;;;;;;;11.32;4.65;;;;;;;6.41;87.41;93800.00;5072542;28;20040;-46
2022/04/10 02:56:09;;;;;;;10.43;4.78;;;;;;;6.54;86.71;93802.34;5071373;28;20036;-46
2022/04/10 02:58:36;;;;;;;11.23;4.05;;;;;;;6.67;86.02;93802.06;5069723;28;20036;-49
2022/04/10 03:01:04;;;;;;;7.88;4.13;;;;;;;6.76;86.10;93801.69;5071908;28;20132;-46
2022/04/10 03:03:34;;;;;;;7.13;4.00;;;;;;;6.85;85.66;93805.47;5068839;28;20047;-47
2022/04/10 03:06:00;;;;;;;9.93;4.05;;;;;;;6.92;84.69;93798.34;5074355;28;20139;-47
2022/04/10 03:08:27;;;;;;;8.77;4.13;;;;;;;7.02;84.56;93801.13;5068670;28;20044;-50
2022/04/10 03:10:57;;;;;;;8.68;4.53;;;;;;;7.13;84.03;93807.25;5066124;28;20064;-45
2022/04/10 03:13:25;;;;;;;17.88;5.30;;;;;;;7.24;83.29;93805.63;5068856;28;20044;-45
2022/04/10 03:15:54;;;;;;;8.60;4.40;;;;;;;7.30;81.24;93804.66;5072756;28;20109;-49
2022/04/10 03:18:22;;;;;;;8.85;4.22;;;;;;;7.27;80.29;93810.31;5067569;28;20040;-47
2022/04/10 03:20:48;;;;;;;9.30;4.28;;;;;;;7.32;80.06;93828.53;5068618;28;20044;-47
2022/04/10 03:23:17;;;;;;;9.52;4.43;;;;;;;7.31;80.36;93845.09;5065860;28;20076;-50
2022/04/10 03:25:45;;;;;;;9.52;3.92;;;;;;;7.42;80.42;93833.09;5064769;28;20736;-45
2022/04/10 03:28:12;;;;;;;10.40;3.95;;;;;;;7.58;80.24;93831.50;5065903;28;20044;-50
2022/04/10 03:30:40;;;;;;;10.23;3.90;;;;;;;7.68;80.15;93836.84;5061948;28;20040;-46
2022/04/10 03:33:07;;;;;;;9.93;4.57;;;;;;;7.80;80.07;93840.16;5063689;28;20102;-46
2022/04/10 03:35:34;;;;;;;8.48;4.22;;;;;;;7.93;80.46;93838.25;5063727;28;20052;-48
2022/04/10 03:38:05;;;;;;;8.15;4.30;;;;;;;7.95;80.97;93841.38;5067758;28;20118;-47
2022/04/10 03:40:32;;;;;;;8.18;3.45;;;;;;;7.96;81.68;93853.31;5063032;28;20044;-48
2022/04/10 03:42:59;;;;;;;14.57;4.40;;;;;;;7.99;81.72;93832.09;5059078;28;20056;-51
2022/04/10 03:45:26;;;;;;;13.75;4.43;;;;;;;7.95;81.68;93818.06;5067217;28;20536;-51
2022/04/10 03:47:54;;;;;;;8.98;4.95;;;;;;;8.08;81.34;93814.31;5069358;28;20433;-50
2022/04/10 03:50:24;;;;;;;8.45;4.20;;;;;;;8.07;80.45;93818.75;5074023;28;20063;-50
2022/04/10 03:52:51;;;;;;;8.65;4.45;;;;;;;8.00;80.56;93833.69;5070879;28;20075;-48
2022/04/10 03:55:18;;;;;;;13.07;4.95;;;;;;;7.82;82.41;93856.25;5069571;28;20571;-44
2022/04/10 03:57:45;;;;;;;12.90;5.47;;;;;;;7.75;83.53;93850.44;5066341;28;20040;-45
2022/04/10 04:00:12;;;;;;;9.52;4.57;;;;;;;7.83;83.03;93834.50;5066378;28;20114;-46
2022/04/10 04:02:47;;;;;;;9.80;4.65;;;;;;;7.56;85.45;93854.28;5072042;28;20842;-45
2022/04/10 04:05:21;;;;;;;11.23;6.07;;;;;;;7.56;85.82;93851.69;5069567;28;20117;-46
2022/04/10 04:07:48;;;;;;;13.85;5.30;;;;;;;7.51;86.97;93855.00;5066968;28;20139;-49
2022/04/10 04:10:24;;;;;;;9.32;4.55;;;;;;;7.58;87.87;93841.88;5068380;28;20041;-49
2022/04/10 04:12:51;;;;;;;14.50;6.25;;;;;;;7.65;89.36;93832.13;5070841;28;20554;-52
2022/04/10 04:15:18;;;;;;;8.38;4.97;;;;;;;7.54;90.96;93851.94;5069232;28;20056;-51
2022/04/10 04:17:45;;;;;;;12.50;6.35;;;;;;;7.53;93.22;93849.59;5067205;28;20052;-47
2022/04/10 04:20:13;;;;;;;10.98;6.22;;;;;;;7.61;93.19;93852.56;5068364;28;20437;-48
2022/04/10 04:22:42;;;;;;;10.40;6.57;;;;;;;7.64;93.83;93867.63;5071395;28;20105;-53
2022/04/10 04:25:09;;;;;;;12.32;5.53;;;;;;;7.70;94.59;93865.13;5061970;28;20052;-49
2022/04/10 04:27:36;;;;;;;16.73;6.63;;;;;;;7.77;95.25;93879.50;5065563;28;20040;-52
2022/04/10 04:30:05;;;;;;;12.65;6.40;;;;;;;7.81;96.48;93883.22;5062104;28;20056;-47
2022/04/10 04:32:33;;;;;;;13.05;7.30;;;;;;;7.81;97.34;93866.84;5062608;28;20051;-49
2022/04/10 04:35:00;;;;;;;26.33;11.95;;;;;;;7.92;97.79;93867.78;5060555;28;20061;-49
2022/04/10 04:37:28;;;;;;;15.93;8.07;;;;;;;7.97;98.71;93875.63;5063458;28;20473;-50
2022/04/10 04:39:55;;;;;;;16.35;8.70;;;;;;;8.08;99.01;93884.34;5064407;28;20127;-49
2022/04/10 04:42:22;;;;;;;15.32;7.88;;;;;;;8.13;99.03;93864.44;5067599;28;20044;-48
2022/04/10 04:44:49;;;;;;;14.15;8.18;;;;;;;8.08;100.00;93887.72;5063209;28;21988;-46
2022/04/10 04:47:16;;;;;;;15.80;9.27;;;;;;;8.15;100.00;93898.72;5068977;28;20044;-46
2022/04/10 04:49:43;;;;;;;17.67;9.23;;;;;;;8.15;100.00;93896.13;5061994;28;20075;-45
2022/04/10 04:52:13;;;;;;;20.40;10.02;;;;;;;8.14;100.00;93907.53;5067599;28;20047;-50
2022/04/10 04:54:41;;;;;;;19.88;10.90;;;;;;;8.01;100.00;93902.66;5062781;28;20040;-45
2022/04/10 04:57:07;;;;;;;20.10;11.02;;;;;;;7.87;100.00;93901.41;5062421;28;20045;-47
2022/04/10 04:59:39;;;;;;;20.90;10.80;;;;;;;7.81;100.00;93913.50;5074420;28;20060;-48
2022/04/10 05:02:06;;;;;;;27.35;11.70;;;;;;;7.72;100.00;93894.97;5061561;28;20064;-47
2022/04/10 05:04:33;;;;;;;24.90;12.68;;;;;;;7.75;100.00;93902.28;5061913;28;20044;-48
2022/04/10 05:07:00;;;;;;;18.30;11.60;;;;;;;7.62;100.00;93915.56;5065926;28;20040;-47
2022/04/10 05:09:27;;;;;;;24.05;13.38;;;;;;;7.63;100.00;93911.94;5067602;28;20071;-48
2022/04/10 05:11:55;;;;;;;23.00;12.38;;;;;;;7.59;100.00;93916.00;5068431;28;20046;-46
2022/04/10 05:14:23;;;;;;;24.23;13.50;;;;;;;7.68;100.00;93914.59;5068579;28;20056;-47
2022/04/10 05:16:50;;;;;;;29.23;13.98;;;;;;;7.63;100.00;93932.66;5049181;28;20466;-45
2022/04/10 05:19:19;;;;;;;21.15;11.25;;;;;;;7.68;100.00;93932.75;5067199;28;20053;-47
2022/04/10 05:21:46;;;;;;;21.60;12.13;;;;;;;7.65;100.00;93939.19;5065579;28;20054;-49
2022/04/10 05:24:13;;;;;;;24.08;12.68;;;;;;;7.69;100.00;93934.34;5064645;28;20488;-46
2022/04/10 05:26:40;;;;;;;26.23;13.20;;;;;;;7.67;100.00;93941.56;5065398;28;20155;-48
2022/04/10 05:29:08;;;;;;;26.25;12.60;;;;;;;7.53;100.00;93942.88;5065916;28;20040;-46
2022/04/10 05:31:35;;;;;;;15.77;9.40;;;;;;;7.60;100.00;93966.84;5067423;28;20156;-46
2022/04/10 05:34:02;;;;;;;28.40;12.30;;;;;;;7.68;100.00;93956.06;5066274;28;20071;-45
2022/04/10 05:36:31;;;;;;;25.60;13.68;;;;;;;7.60;100.00;93951.28;5066349;28;20113;-44
2022/04/10 05:38:57;;;;;;;23.60;12.07;;;;;;;7.68;100.00;93948.31;5068976;28;20043;-47
2022/04/10 05:41:27;;;;;;;22.17;11.85;;;;;;;7.58;100.00;93929.97;5066622;28;20135;-48
2022/04/10 05:43:59;;;;;;;27.23;11.18;;;;;;;7.61;100.00;93937.28;5066266;28;20044;-47
2022/04/10 05:46:27;;;;;;;15.63;8.52;;;;;;;7.44;100.00;93935.47;5066629;28;20060;-45
2022/04/10 05:48:58;;;;;;;18.27;10.30;;;;;;;7.25;100.00;93931.50;5066634;28;20530;-48
2022/04/10 05:51:26;;;;;;;26.02;11.60;;;;;;;7.16;100.00;93932.88;5065259;28;20079;-47
2022/04/10 05:53:53;;;;;;;24.42;10.85;;;;;;;7.15;100.00;93939.06;5067852;28;20571;-48
2022/04/10 05:56:20;;;;;;;25.48;12.30;;;;;;;7.15;100.00;93942.47;5065831;28;20044;-48
2022/04/10 05:58:49;;;;;;;24.63;12.75;;;;;;;7.06;100.00;93956.78;5065692;28;20041;-45
2022/04/10 06:01:16;;;;;;;18.90;9.90;;;;;;;7.00;100.00;93947.34;5066214;28;20135;-49
2022/04/10 06:03:45;;;;;;;22.90;11.70;;;;;;;7.05;100.00;93956.00;5067675;28;20050;-44
2022/04/10 06:06:13;;;;;;;25.88;13.20;;;;;;;7.00;100.00;93950.72;5066092;28;20049;-44
2022/04/10 06:08:52;;;;;;;16.98;8.07;;;;;;;6.85;100.00;93958.97;5065446;28;20794;-46
2022/04/10 06:11:19;;;;;;;17.83;9.90;;;;;;;6.86;100.00;93970.09;5066852;28;20512;-46
2022/04/10 06:13:46;;;;;;;18.52;10.07;;;;;;;6.82;100.00;93964.59;5065795;28;20149;-45
2022/04/10 06:16:19;;;;;;;21.92;12.02;;;;;;;6.85;100.00;93968.53;5062987;28;20045;-46
2022/04/10 06:18:46;;;;;;;18.48;10.27;;;;;;;6.92;100.00;93961.44;5065291;28;20493;-46
2022/04/10 06:21:13;;;;;;;18.23;8.70;;;;;;;6.94;100.00;93972.34;5068417;28;20040;-47
2022/04/10 06:23:43;;;;;;;19.40;10.25;;;;;;;6.88;100.00;93970.69;5064369;28;20045;-47
2022/04/10 06:26:15;;;;;;;21.30;10.45;;;;;;;6.91;100.00;93988.34;5065059;28;20076;-46
2022/04/10 06:28:43;;;;;;;21.77;10.43;;;;;;;6.86;100.00;93985.63;5064458;28;20044;-49
2022/04/10 06:31:17;;;;;;;19.63;9.48;;;;;;;6.73;100.00;93991.06;5064571;28;20048;-47
2022/04/10 06:33:47;;;;;;;18.90;10.13;;;;;;;6.67;100.00;93990.97;5065059;28;20048;-45
2022/04/10 06:36:14;;;;;;;22.98;10.20;;;;;;;6.73;100.00;93991.06;5065868;28;20033;-45
2022/04/10 06:38:41;;;;;;;26.25;11.07;;;;;;;6.76;100.00;93991.41;5067661;28;20048;-46
2022/04/10 06:41:16;;;;;;;20.07;10.00;;;;;;;6.76;100.00;93990.63;5064912;28;20094;-45
2022/04/10 06:43:44;;;;;;;17.60;8.48;;;;;;;6.77;100.00;93987.00;5064480;28;20040;-46
2022/04/10 06:46:35;;;;;;;14.27;7.40;;;;;;;6.56;100.00;93996.94;5066201;28;20402;-48
2022/04/10 06:49:13;;;;;;;18.08;8.27;;;;;;;6.56;100.00;93990.97;5060950;28;20167;-46
2022/04/10 06:51:43;;;;;;;16.70;8.23;;;;;;;6.50;100.00;94008.19;5060623;28;20113;-43
2022/04/10 06:54:11;;;;;;;22.00;9.82;;;;;;;6.50;100.00;94013.38;5059007;28;20040;-49
2022/04/10 06:56:38;;;;;;;20.92;7.18;;;;;;;6.50;100.00;94013.38;5064593;28;20127;-50
2022/04/10 06:59:05;;;;;;;17.83;8.15;;;;;;;6.50;100.00;94008.19;5062457;28;20045;-49
2022/04/10 07:01:32;;;;;;;13.60;7.55;;;;;;;6.49;100.00;94016.97;5063260;28;20047;-45
2022/04/10 07:04:05;;;;;;;18.80;8.25;;;;;;;6.41;100.00;94005.16;5063190;28;20040;-45
2022/04/10 07:06:33;;;;;;;14.57;8.00;;;;;;;6.39;100.00;94001.19;5063672;28;20094;-47
2022/04/10 07:09:00;;;;;;;22.35;9.57;;;;;;;6.29;100.00;94007.72;5065466;28;20135;-46
2022/04/10 07:11:34;;;;;;;14.40;6.70;;;;;;;6.18;100.00;93999.97;5064755;28;20155;-47
2022/04/10 07:14:05;;;;;;;13.10;6.15;;;;;;;6.05;100.00;93985.44;5097132;27;20045;-46
2022/04/10 07:16:32;;;;;;;15.70;6.20;;;;;;;6.04;100.00;93983.88;5063573;28;20123;-45
2022/04/10 07:19:00;;;;;;;16.85;7.22;;;;;;;6.10;100.00;93978.59;5064366;28;20138;-45
2022/04/10 07:24:15;;;;;;;15.57;6.05;;;;;;;6.10;100.00;94003.66;5062046;28;20064;-45
2022/04/10 07:26:52;;;;;;;19.40;7.22;;;;;;;6.07;100.00;94014.47;5063704;28;20059;-46
2022/04/10 07:29:22;;;;;;;11.60;6.20;;;;;;;6.19;100.00;94011.88;5063217;28;20048;-45
2022/04/10 07:31:50;;;;;;;12.77;5.72;;;;;;;6.22;100.00;94001.88;5062385;28;20135;-47
2022/04/10 07:34:17;;;;;;;17.55;7.63;;;;;;;6.17;100.00;93999.16;5061439;28;20068;-50
2022/04/10 07:37:03;;;;;;;13.38;6.63;;;;;;;6.22;100.00;93990.75;5058817;28;20051;-45
2022/04/10 07:39:41;;;;;;;13.07;5.32;;;;;;;6.24;100.00;93988.72;5061201;28;20102;-44
2022/04/10 07:42:17;;;;;;;13.73;4.38;;;;;;;6.20;100.00;93975.44;5057646;28;20093;-46
2022/04/10 07:45:07;;;;;;;9.40;3.78;;;;;;;6.28;100.00;93982.88;5062585;28;20456;-46
2022/04/10 07:47:51;;;;;;;;;;;;;;;6.29;100.00;93996.59;5061889;28;20094;-46
2022/04/10 07:50:18;;;;;;;9.35;5.05;;;;;;;6.29;100.00;94007.72;5061052;28;19960;-44
2022/04/10 07:52:48;;;;;;;8.30;4.30;;;;;;;6.31;100.00;94000.53;5063214;28;20048;-47
2022/04/10 07:55:22;;;;;;;9.40;5.32;;;;;;;6.34;100.00;94001.09;5061496;28;20048;-47
2022/04/10 07:57:49;;;;;;;6.38;3.90;;;;;;;6.40;100.00;94011.31;5061637;28;20040;-48
2022/04/10 08:00:18;;;;;;;9.88;4.25;;;;;;;6.61;100.00;94011.75;5063459;28;20064;-46
2022/04/10 08:02:53;;;;;;;12.02;6.15;;;;;;;6.83;100.00;94006.81;5062873;28;20433;-45
2022/04/10 08:05:40;;;;;;;18.00;6.45;;;;;;;6.86;100.00;94008.94;5050614;28;20483;-49
2022/04/10 08:08:16;;;;;;;13.05;6.50;;;;;;;6.85;99.79;94021.09;5065681;28;20044;-45
2022/04/10 08:10:42;;;;;;;9.95;3.22;;;;;;;6.82;98.70;94005.22;5065162;27;20055;-45
2022/04/10 08:13:09;;;;;;;11.63;5.45;;;;;;;6.95;99.28;94015.34;5064174;28;20066;-48
2022/04/10 08:15:36;;;;;;;7.10;4.05;;;;;;;7.00;97.41;94018.03;5063319;28;20095;-47
2022/04/10 08:18:09;;;;;;;5.30;3.08;;;;;;;7.01;96.68;94024.78;5061772;28;20040;-50
2022/04/10 08:20:36;;;;;;;8.77;4.30;;;;;;;7.14;96.10;94028.94;5063413;28;20456;-46
2022/04/10 08:23:03;;;;;;;4.50;2.35;;;;;;;7.06;95.54;94032.66;5062813;28;20502;-46
2022/04/10 08:25:30;;;;;;;8.25;2.20;;;;;;;7.00;96.07;94022.41;5064146;28;20064;-48
2022/04/10 08:27:57;;;;;;;9.10;3.38;;;;;;;7.18;95.14;94018.91;5065175;28;20397;-49
2022/04/10 08:30:23;;;;;;;4.72;2.65;;;;;;;7.28;94.89;94011.34;5063936;28;20036;-46
2022/04/10 08:32:50;;;;;;;4.75;1.90;;;;;;;7.17;93.42;94027.69;5062876;28;20036;-46
2022/04/10 08:35:18;;;;;;;3.80;1.83;;;;;;;7.12;93.83;94030.19;5063724;28;21389;-46
2022/04/10 08:37:45;;;;;;;9.05;5.35;;;;;;;7.05;92.83;94005.19;5066397;28;20119;-46
2022/04/10 08:40:12;;;;;;;5.97;2.03;;;;;;;6.97;93.04;94026.28;5058851;28;20098;-50
2022/04/10 08:42:39;;;;;;;5.45;1.85;;;;;;;6.73;92.96;94038.44;5062007;28;20063;-47
2022/04/10 08:45:08;;;;;;;2.38;1.73;;;;;;;6.63;93.44;94054.53;5064361;28;20438;-47
2022/04/10 08:47:37;;;;;;;4.97;2.08;;;;;;;6.49;94.07;94032.47;5062665;28;20048;-47
2022/04/10 08:50:04;;;;;;;2.95;1.65;;;;;;;6.46;95.13;94048.44;5064712;28;20041;-49
2022/04/10 08:52:31;;;;;;;3.50;1.73;;;;;;;6.40;94.59;94051.94;5063333;28;20757;-50
2022/04/10 08:54:58;;;;;;;3.97;1.48;;;;;;;6.25;95.00;94063.50;5065843;28;20055;-46
2022/04/10 08:57:25;;;;;;;2.50;1.77;;;;;;;5.99;95.69;94056.13;5063045;28;20110;-46
2022/04/10 08:59:57;;;;;;;2.00;1.20;;;;;;;5.87;95.57;94062.03;5063664;28;20055;-49
2022/04/10 09:02:24;;;;;;;3.47;2.28;;;;;;;5.57;96.93;94046.50;5062941;28;20074;-46
2022/04/10 09:04:52;;;;;;;3.70;2.45;;;;;;;5.58;97.42;94073.13;5064611;28;20045;-49
2022/04/10 09:07:20;;;;;;;2.78;1.98;;;;;;;5.40;97.79;94061.81;5065872;28;20080;-47
2022/04/10 09:09:57;;;;;;;2.13;1.23;;;;;;;5.26;98.46;94070.75;5063297;28;20037;-45
2022/04/10 09:12:24;;;;;;;1.85;1.27;;;;;;;5.18;99.64;94064.06;5062667;28;20036;-47
2022/04/10 09:15:01;;;;;;;2.15;1.60;;;;;;;5.19;99.38;94070.03;5063477;28;20044;-46
2022/04/10 09:17:29;;;;;;;3.00;1.92;;;;;;;4.93;100.00;94077.03;5062584;28;20040;-44
2022/04/10 09:19:58;;;;;;;3.80;1.92;;;;;;;4.82;100.00;94065.63;5064337;28;20068;-47
2022/04/10 09:22:24;;;;;;;8.18;4.15;;;;;;;4.77;100.00;94063.69;5063200;28;20129;-46
2022/04/10 09:25:15;;;;;;;10.30;2.53;;;;;;;4.78;100.00;94054.16;5060226;28;20044;-44
2022/04/10 09:27:46;;;;;;;5.00;2.83;;;;;;;4.64;100.00;94056.06;5062274;28;20056;-47
2022/04/10 09:30:18;;;;;;;6.57;1.85;;;;;;;4.63;100.00;94057.09;5061997;28;20048;-48
2022/04/10 09:32:51;;;;;;;3.17;1.20;;;;;;;4.42;100.00;94049.72;5064531;28;20057;-44
2022/04/10 09:35:20;;;;;;;2.28;0.93;;;;;;;4.23;100.00;94072.84;5061156;28;20044;-47
2022/04/10 09:37:54;;;;;;;1.42;0.65;;;;;;;4.13;100.00;94072.56;5063488;28;20048;-43
2022/04/10 09:40:27;;;;;;;1.10;0.70;;;;;;;4.02;100.00;94064.50;5063490;28;20045;-45
2022/04/10 09:43:07;;;;;;;2.00;1.17;;;;;;;3.83;100.00;94086.81;5062901;28;20473;-47
2022/04/10 09:45:42;;;;;;;3.60;1.10;;;;;;;3.82;100.00;94094.75;5061656;28;20114;-45
2022/04/10 09:48:23;;;;;;;3.20;1.13;;;;;;;3.75;100.00;94070.81;5062959;28;20421;-46
2022/04/10 09:50:56;;;;;;;1.17;0.90;;;;;;;3.67;100.00;94096.78;5058501;28;20087;-47
2022/04/10 09:53:26;;;;;;;;;;;;;;;3.62;100.00;94084.53;5062088;28;20056;-47
2022/04/10 09:55:58;;;;;;;4.40;2.70;;;;;;;3.52;100.00;94087.53;5064731;28;20471;-46
2022/04/10 09:58:26;;;;;;;1.05;0.95;;;;;;;3.54;100.00;94089.91;5062178;28;20060;-45
2022/04/10 10:00:55;;;;;;;3.95;1.83;;;;;;;3.54;100.00;94090.69;5065069;28;20138;-47
2022/04/10 10:03:31;;;;;;;5.18;2.97;;;;;;;3.57;100.00;94085.16;5067143;28;20146;-47
2022/04/10 10:05:58;;;;;;;3.60;2.60;;;;;;;3.48;100.00;94101.84;5065420;28;20457;-49
2022/04/10 10:08:27;;;;;;;6.75;2.42;;;;;;;3.33;100.00;94109.00;5067623;28;20056;-47
2022/04/10 10:10:56;;;;;;;3.47;2.22;;;;;;;3.27;100.00;94114.97;5065562;28;20045;-46
2022/04/10 10:13:27;;;;;;;2.28;1.48;;;;;;;3.21;100.00;94104.50;5069799;28;20056;-47
2022/04/10 10:15:57;;;;;;;4.90;2.63;;;;;;;3.13;100.00;94107.28;5067572;28;20040;-43
2022/04/10 10:18:25;;;;;;;1.70;0.75;;;;;;;2.98;100.00;94111.88;5064558;28;20135;-45
2022/04/10 10:20:52;;;;;;;3.90;2.47;;;;;;;3.00;100.00;94115.03;5065326;28;20053;-46
2022/04/10 10:23:21;;;;;;;3.72;2.08;;;;;;;3.00;100.00;94120.19;5064697;28;20110;-45
2022/04/10 10:26:09;;;;;;;2.05;1.33;;;;;;;2.78;100.00;94112.69;5063235;28;20053;-45
2022/04/10 10:29:08;;;;;;;2.38;1.75;;;;;;;2.74;100.00;94116.66;5064529;28;20121;-45
2022/04/10 10:31:47;;;;;;;9.25;3.38;;;;;;;2.81;100.00;94106.34;5067314;28;20040;-45
2022/04/10 10:34:15;;;;;;;2.88;2.05;;;;;;;2.69;100.00;94116.47;5061507;28;20055;-45
2022/04/10 10:36:43;;;;;;;3.00;1.27;;;;;;;2.61;100.00;94098.66;5061014;28;20163;-46
2022/04/10 10:39:11;;;;;;;8.88;4.82;;;;;;;2.71;100.00;94106.00;5063018;28;20052;-45
2022/04/10 10:41:39;;;;;;;3.05;1.60;;;;;;;2.63;100.00;94096.72;5061748;28;20139;-48
2022/04/10 10:44:16;;;;;;;15.45;2.80;;;;;;;2.62;100.00;94095.91;5059512;28;20829;-45
2022/04/10 10:47:03;;;;;;;11.68;3.10;;;;;;;2.67;100.00;94085.03;5064540;28;20060;-46
2022/04/10 10:49:31;;;;;;;20.40;4.03;;;;;;;2.63;100.00;94083.84;5060327;28;20480;-49
2022/04/10 10:52:09;;;;;;;3.28;1.50;;;;;;;2.68;100.00;94102.03;5043420;28;20049;-47
2022/04/10 10:54:45;;;;;;;4.47;1.85;;;;;;;2.65;100.00;94087.00;5058892;28;20060;-46
2022/04/10 10:57:24;;;;;;;6.07;2.58;;;;;;;2.60;100.00;94089.38;5061439;28;20056;-47
2022/04/10 11:00:14;;;;;;;3.83;1.98;;;;;;;2.57;100.00;94085.41;5062485;28;20473;-44
2022/04/10 11:02:48;;;;;;;4.05;1.55;;;;;;;2.74;100.00;94085.81;5052642;28;20136;-48
2022/04/10 11:05:24;;;;;;;2.03;1.55;;;;;;;2.59;100.00;94077.50;5061826;28;20147;-46
2022/04/10 11:08:17;;;;;;;2.30;1.13;;;;;;;2.52;100.00;94076.72;5063993;28;20071;-47
2022/04/10 11:10:53;;;;;;;3.17;1.67;;;;;;;2.53;100.00;94062.91;5062861;28;20098;-46
2022/04/10 11:13:20;;;;;;;2.95;1.40;;;;;;;2.60;100.00;94079.09;5060473;28;20056;-47
2022/04/10 11:15:52;;;;;;;4.28;2.38;;;;;;;2.66;100.00;94057.72;5057815;28;20040;-48
2022/04/10 11:18:23;;;;;;;5.28;2.40;;;;;;;2.90;100.00;94071.72;5062851;28;20791;-46
2022/04/10 11:20:54;;;;;;;5.28;2.97;;;;;;;2.96;100.00;94073.50;5061364;28;20119;-46
2022/04/10 11:23:28;;;;;;;3.05;1.65;;;;;;;2.93;100.00;94062.81;5061726;28;20044;-45
2022/04/10 11:26:02;;;;;;;5.55;2.30;;;;;;;2.97;100.00;94053.69;5059966;28;20545;-44
2022/04/10 11:28:31;;;;;;;5.18;1.98;;;;;;;3.00;100.00;94050.72;5062492;28;20049;-49
2022/04/10 11:31:01;;;;;;;12.18;2.95;;;;;;;3.14;100.00;94054.06;5060807;28;20133;-46
2022/04/10 11:33:48;;;;;;;2.55;1.17;;;;;;;3.10;100.00;94069.09;5061139;28;20050;-44
2022/04/10 11:36:18;;;;;;;6.55;2.63;;;;;;;3.22;100.00;94072.63;5061647;28;20127;-44
2022/04/10 11:39:08;;;;;;;6.60;3.03;;;;;;;3.21;100.00;94073.63;5061686;28;20120;-45
2022/04/10 11:41:37;;;;;;;3.78;1.95;;;;;;;2.99;100.00;94062.00;5062229;28;20127;-47
2022/04/10 11:44:07;;;;;;;5.50;3.20;;;;;;;3.06;100.00;94067.91;5058835;28;20048;-46
2022/04/10 11:46:34;;;;;;;4.93;2.40;;;;;;;3.10;100.00;94069.09;5060572;28;20509;-45
2022/04/10 11:49:02;;;;;;;6.28;2.60;;;;;;;2.83;100.00;94048.59;5061760;28;20048;-46